sensor_id;sensor_type;location;lat;lon;timestamp;pressure;altitude;pressure_sealevel;temperature;humidity
32456;BME280;18912;43.270;27.942;2023-01-31T00:01:29;97576.09;;;1.99;71.76
32456;BME280;18912;43.270;27.942;2023-01-31T00:03:56;97580.09;;;1.87;72.59
32456;BME280;18912;43.270;27.942;2023-01-31T00:06:30;97579.25;;;1.95;72.56
32456;BME280;18912;43.270;27.942;2023-01-31T00:08:57;97584.59;;;1.78;73.00
32456;BME280;18912;43.270;27.942;2023-01-31T00:11:25;97575.59;;;1.87;72.98
32456;BME280;18912;43.270;27.942;2023-01-31T00:13:51;97587.41;;;1.85;72.96
32456;BME280;18912;43.270;27.942;2023-01-31T00:16:17;97579.75;;;1.82;73.84
32456;BME280;18912;43.270;27.942;2023-01-31T00:18:44;97581.25;;;2.09;71.52
32456;BME280;18912;43.270;27.942;2023-01-31T00:21:13;97578.25;;;2.04;71.88
32456;BME280;18912;43.270;27.942;2023-01-31T00:23:40;97568.06;;;1.75;73.76
32456;BME280;18912;43.270;27.942;2023-01-31T00:28:46;97571.44;;;2.01;73.26
32456;BME280;18912;43.270;27.942;2023-01-31T00:31:13;97565.59;;;2.14;72.60
32456;BME280;18912;43.270;27.942;2023-01-31T00:33:41;97576.06;;;2.31;71.91
32456;BME280;18912;43.270;27.942;2023-01-31T00:36:15;97570.44;;;2.18;71.30
32456;BME280;18912;43.270;27.942;2023-01-31T00:38:41;97573.06;;;2.26;70.84
32456;BME280;18912;43.270;27.942;2023-01-31T00:41:07;97571.94;;;2.05;71.63
32456;BME280;18912;43.270;27.942;2023-01-31T00:43:33;97564.91;;;2.12;71.56
32456;BME280;18912;43.270;27.942;2023-01-31T00:45:58;97566.06;;;2.25;70.82
32456;BME280;18912;43.270;27.942;2023-01-31T00:48:24;97556.25;;;2.26;70.49
32456;BME280;18912;43.270;27.942;2023-01-31T00:50:50;97557.41;;;2.31;70.71
32456;BME280;18912;43.270;27.942;2023-01-31T00:53:15;97546.44;;;2.10;71.41
32456;BME280;18912;43.270;27.942;2023-01-31T00:55:43;97546.09;;;2.21;71.67
32456;BME280;18912;43.270;27.942;2023-01-31T00:58:08;97549.59;;;2.30;70.61
32456;BME280;18912;43.270;27.942;2023-01-31T01:00:34;97532.91;;;2.20;71.34
32456;BME280;18912;43.270;27.942;2023-01-31T01:02:59;97527.72;;;2.34;71.20
32456;BME280;18912;43.270;27.942;2023-01-31T01:05:25;97533.84;;;2.51;70.44
32456;BME280;18912;43.270;27.942;2023-01-31T01:07:50;97536.16;;;2.62;70.36
32456;BME280;18912;43.270;27.942;2023-01-31T01:10:16;97519.94;;;2.71;69.93
32456;BME280;18912;43.270;27.942;2023-01-31T01:12:41;97527.91;;;2.79;69.50
32456;BME280;18912;43.270;27.942;2023-01-31T01:15:07;97524.03;;;2.90;69.23
32456;BME280;18912;43.270;27.942;2023-01-31T01:17:32;97525.38;;;2.86;69.33
32456;BME280;18912;43.270;27.942;2023-01-31T01:19:58;97516.75;;;2.76;69.07
32456;BME280;18912;43.270;27.942;2023-01-31T01:22:30;97520.22;;;2.84;68.94
32456;BME280;18912;43.270;27.942;2023-01-31T01:24:56;97517.13;;;2.65;69.43
32456;BME280;18912;43.270;27.942;2023-01-31T01:27:21;97506.19;;;2.44;69.96
32456;BME280;18912;43.270;27.942;2023-01-31T01:29:47;97504.16;;;2.54;70.19
32456;BME280;18912;43.270;27.942;2023-01-31T01:32:12;97506.00;;;2.45;69.97
32456;BME280;18912;43.270;27.942;2023-01-31T01:34:37;97512.28;;;2.60;69.56
32456;BME280;18912;43.270;27.942;2023-01-31T01:37:03;97502.81;;;2.58;69.09
32456;BME280;18912;43.270;27.942;2023-01-31T01:39:36;97499.41;;;2.33;69.75
32456;BME280;18912;43.270;27.942;2023-01-31T01:42:02;97506.84;;;2.54;69.32
32456;BME280;18912;43.270;27.942;2023-01-31T01:44:47;97499.78;;;2.69;69.43
32456;BME280;18912;43.270;27.942;2023-01-31T01:49:51;97490.75;;;2.70;69.16
32456;BME280;18912;43.270;27.942;2023-01-31T01:52:19;97485.81;;;2.51;69.86
32456;BME280;18912;43.270;27.942;2023-01-31T01:54:59;97489.06;;;2.77;69.52
32456;BME280;18912;43.270;27.942;2023-01-31T01:57:36;97480.84;;;2.48;69.46
32456;BME280;18912;43.270;27.942;2023-01-31T02:00:22;97479.25;;;2.69;68.90
32456;BME280;18912;43.270;27.942;2023-01-31T02:02:51;97480.13;;;2.62;68.16
32456;BME280;18912;43.270;27.942;2023-01-31T02:05:25;97478.25;;;2.24;68.61
32456;BME280;18912;43.270;27.942;2023-01-31T02:07:53;97481.38;;;2.35;68.12
32456;BME280;18912;43.270;27.942;2023-01-31T02:10:20;97489.28;;;2.13;68.85
32456;BME280;18912;43.270;27.942;2023-01-31T02:12:48;97487.59;;;2.20;69.32
32456;BME280;18912;43.270;27.942;2023-01-31T02:15:13;97490.56;;;2.25;69.69
32456;BME280;18912;43.270;27.942;2023-01-31T02:17:39;97492.44;;;2.00;70.13
32456;BME280;18912;43.270;27.942;2023-01-31T02:23:07;97494.63;;;2.13;71.52
32456;BME280;18912;43.270;27.942;2023-01-31T02:34:56;97496.31;;;1.89;73.64
32456;BME280;18912;43.270;27.942;2023-01-31T02:37:57;97491.22;;;2.27;73.06
32456;BME280;18912;43.270;27.942;2023-01-31T02:45:58;97495.88;;;2.41;72.30
32456;BME280;18912;43.270;27.942;2023-01-31T02:53:28;97482.03;;;2.84;70.65
32456;BME280;18912;43.270;27.942;2023-01-31T02:55:57;97477.31;;;2.94;70.31
32456;BME280;18912;43.270;27.942;2023-01-31T03:01:15;97474.28;;;2.97;70.28
32456;BME280;18912;43.270;27.942;2023-01-31T03:03:43;97483.56;;;3.09;69.84
32456;BME280;18912;43.270;27.942;2023-01-31T03:08:51;97484.03;;;2.82;70.60
32456;BME280;18912;43.270;27.942;2023-01-31T03:11:18;97481.72;;;2.79;70.55
32456;BME280;18912;43.270;27.942;2023-01-31T03:14:05;97480.88;;;2.78;71.16
32456;BME280;18912;43.270;27.942;2023-01-31T03:16:44;97484.00;;;2.51;71.68
32456;BME280;18912;43.270;27.942;2023-01-31T03:20:21;97472.47;;;2.51;72.09
32456;BME280;18912;43.270;27.942;2023-01-31T03:22:28;97483.56;;;2.78;71.30
32456;BME280;18912;43.270;27.942;2023-01-31T03:24:56;97474.41;;;2.73;71.57
32456;BME280;18912;43.270;27.942;2023-01-31T03:27:23;97472.44;;;2.59;72.27
32456;BME280;18912;43.270;27.942;2023-01-31T03:29:50;97477.09;;;2.65;72.62
32456;BME280;18912;43.270;27.942;2023-01-31T03:34:47;97460.25;;;2.64;73.54
32456;BME280;18912;43.270;27.942;2023-01-31T03:39:43;97462.31;;;2.85;72.93
32456;BME280;18912;43.270;27.942;2023-01-31T03:42:17;97461.25;;;2.71;74.12
32456;BME280;18912;43.270;27.942;2023-01-31T03:47:37;97469.84;;;3.12;72.81
32456;BME280;18912;43.270;27.942;2023-01-31T03:50:11;97465.38;;;2.74;74.18
32456;BME280;18912;43.270;27.942;2023-01-31T03:52:43;97474.00;;;3.15;73.33
32456;BME280;18912;43.270;27.942;2023-01-31T03:55:18;97468.03;;;3.13;73.65
32456;BME280;18912;43.270;27.942;2023-01-31T03:57:49;97459.13;;;2.90;74.51
32456;BME280;18912;43.270;27.942;2023-01-31T04:00:18;97469.63;;;3.44;73.21
32456;BME280;18912;43.270;27.942;2023-01-31T04:02:48;97468.06;;;3.50;72.55
32456;BME280;18912;43.270;27.942;2023-01-31T04:05:19;97472.25;;;3.52;71.56
32456;BME280;18912;43.270;27.942;2023-01-31T04:07:46;97466.84;;;3.60;71.58
32456;BME280;18912;43.270;27.942;2023-01-31T04:10:15;97473.66;;;3.63;70.79
32456;BME280;18912;43.270;27.942;2023-01-31T04:12:42;97473.66;;;3.86;70.04
32456;BME280;18912;43.270;27.942;2023-01-31T04:15:08;97465.38;;;3.72;70.61
32456;BME280;18912;43.270;27.942;2023-01-31T04:17:34;97472.25;;;3.90;70.15
32456;BME280;18912;43.270;27.942;2023-01-31T04:19:59;97463.38;;;3.74;70.44
32456;BME280;18912;43.270;27.942;2023-01-31T04:22:25;97467.41;;;3.48;70.44
32456;BME280;18912;43.270;27.942;2023-01-31T04:24:50;97467.25;;;3.27;70.61
32456;BME280;18912;43.270;27.942;2023-01-31T04:27:16;97478.25;;;3.54;69.29
32456;BME280;18912;43.270;27.942;2023-01-31T04:29:42;97479.59;;;3.73;68.46
32456;BME280;18912;43.270;27.942;2023-01-31T04:32:08;97477.13;;;3.86;68.14
32456;BME280;18912;43.270;27.942;2023-01-31T04:34:33;97481.22;;;3.97;67.43
32456;BME280;18912;43.270;27.942;2023-01-31T04:36:58;97479.59;;;4.10;66.97
32456;BME280;18912;43.270;27.942;2023-01-31T04:39:24;97480.72;;;4.16;66.50
32456;BME280;18912;43.270;27.942;2023-01-31T04:41:49;97485.69;;;4.19;66.28
32456;BME280;18912;43.270;27.942;2023-01-31T04:44:15;97489.94;;;4.28;66.17
32456;BME280;18912;43.270;27.942;2023-01-31T04:46:41;97494.56;;;4.19;65.94
32456;BME280;18912;43.270;27.942;2023-01-31T04:49:07;97496.28;;;4.12;66.38
32456;BME280;18912;43.270;27.942;2023-01-31T04:51:32;97499.97;;;4.11;66.58
32456;BME280;18912;43.270;27.942;2023-01-31T04:53:58;97498.94;;;3.98;66.74
32456;BME280;18912;43.270;27.942;2023-01-31T04:56:24;97505.38;;;3.89;67.26
32456;BME280;18912;43.270;27.942;2023-01-31T04:58:49;97512.59;;;3.80;67.64
32456;BME280;18912;43.270;27.942;2023-01-31T05:01:14;97515.84;;;3.53;68.97
32456;BME280;18912;43.270;27.942;2023-01-31T05:03:40;97518.38;;;3.46;68.68
32456;BME280;18912;43.270;27.942;2023-01-31T05:06:05;97515.94;;;3.59;69.26
32456;BME280;18912;43.270;27.942;2023-01-31T05:08:31;97507.63;;;3.54;69.56
32456;BME280;18912;43.270;27.942;2023-01-31T05:11:01;97510.34;;;3.92;68.59
32456;BME280;18912;43.270;27.942;2023-01-31T05:13:27;97506.97;;;3.52;69.52
32456;BME280;18912;43.270;27.942;2023-01-31T05:15:55;97524.63;;;3.61;70.25
32456;BME280;18912;43.270;27.942;2023-01-31T05:18:23;97516.06;;;3.66;69.96
32456;BME280;18912;43.270;27.942;2023-01-31T05:20:48;97519.09;;;3.63;69.91
32456;BME280;18912;43.270;27.942;2023-01-31T05:23:16;97518.69;;;3.74;69.84
32456;BME280;18912;43.270;27.942;2023-01-31T05:25:41;97511.66;;;3.73;69.99
32456;BME280;18912;43.270;27.942;2023-01-31T05:28:07;97519.19;;;3.92;70.08
32456;BME280;18912;43.270;27.942;2023-01-31T05:30:33;97516.41;;;4.08;69.42
32456;BME280;18912;43.270;27.942;2023-01-31T05:32:58;97523.56;;;4.08;69.38
32456;BME280;18912;43.270;27.942;2023-01-31T05:35:24;97530.06;;;3.91;69.98
32456;BME280;18912;43.270;27.942;2023-01-31T05:37:52;97537.78;;;3.63;70.23
32456;BME280;18912;43.270;27.942;2023-01-31T05:40:17;97538.94;;;3.68;70.79
32456;BME280;18912;43.270;27.942;2023-01-31T05:42:43;97545.94;;;3.69;71.06
32456;BME280;18912;43.270;27.942;2023-01-31T05:45:09;97539.47;;;3.87;70.86
32456;BME280;18912;43.270;27.942;2023-01-31T05:47:35;97535.00;;;4.02;69.92
32456;BME280;18912;43.270;27.942;2023-01-31T05:50:01;97531.38;;;3.95;70.11
32456;BME280;18912;43.270;27.942;2023-01-31T05:52:27;97534.63;;;3.82;70.81
32456;BME280;18912;43.270;27.942;2023-01-31T05:54:52;97533.44;;;4.07;70.27
32456;BME280;18912;43.270;27.942;2023-01-31T05:57:18;97534.09;;;4.09;70.32
32456;BME280;18912;43.270;27.942;2023-01-31T05:59:44;97543.38;;;3.99;70.82
32456;BME280;18912;43.270;27.942;2023-01-31T06:02:09;97537.13;;;4.06;70.41
32456;BME280;18912;43.270;27.942;2023-01-31T06:04:37;97535.28;;;4.07;70.63
32456;BME280;18912;43.270;27.942;2023-01-31T06:07:03;97531.22;;;4.11;70.80
32456;BME280;18912;43.270;27.942;2023-01-31T06:09:28;97541.22;;;4.17;70.65
32456;BME280;18912;43.270;27.942;2023-01-31T06:11:54;97546.34;;;4.04;71.34
32456;BME280;18912;43.270;27.942;2023-01-31T06:14:19;97539.97;;;4.05;71.46
32456;BME280;18912;43.270;27.942;2023-01-31T06:16:45;97552.13;;;3.93;71.86
32456;BME280;18912;43.270;27.942;2023-01-31T06:19:11;97550.25;;;4.16;71.26
32456;BME280;18912;43.270;27.942;2023-01-31T06:21:36;97549.75;;;4.12;71.47
32456;BME280;18912;43.270;27.942;2023-01-31T06:24:02;97556.66;;;4.07;71.31
32456;BME280;18912;43.270;27.942;2023-01-31T06:26:27;97548.59;;;4.15;71.06
32456;BME280;18912;43.270;27.942;2023-01-31T06:28:52;97553.94;;;4.29;70.44
32456;BME280;18912;43.270;27.942;2023-01-31T06:31:19;97558.84;;;3.89;71.70
32456;BME280;18912;43.270;27.942;2023-01-31T06:33:45;97558.81;;;4.11;71.17
32456;BME280;18912;43.270;27.942;2023-01-31T06:36:11;97553.88;;;4.23;70.64
32456;BME280;18912;43.270;27.942;2023-01-31T06:38:36;97565.31;;;4.31;70.37
32456;BME280;18912;43.270;27.942;2023-01-31T06:41:02;97562.13;;;4.50;70.15
32456;BME280;18912;43.270;27.942;2023-01-31T06:43:27;97561.31;;;4.13;71.17
32456;BME280;18912;43.270;27.942;2023-01-31T06:45:52;97570.63;;;4.17;71.27
32456;BME280;18912;43.270;27.942;2023-01-31T06:48:18;97565.34;;;4.09;71.37
32456;BME280;18912;43.270;27.942;2023-01-31T06:50:45;97567.63;;;4.34;71.12
32456;BME280;18912;43.270;27.942;2023-01-31T06:53:10;97567.91;;;4.39;71.12
32456;BME280;18912;43.270;27.942;2023-01-31T06:55:37;97564.91;;;4.57;70.76
32456;BME280;18912;43.270;27.942;2023-01-31T13:59:55;97683.09;;;4.46;81.71
32456;BME280;18912;43.270;27.942;2023-01-31T14:02:22;97693.81;;;4.23;81.88
32456;BME280;18912;43.270;27.942;2023-01-31T14:04:48;97704.03;;;4.20;82.04
32456;BME280;18912;43.270;27.942;2023-01-31T14:07:16;97696.91;;;4.35;81.57
32456;BME280;18912;43.270;27.942;2023-01-31T14:14:52;97701.28;;;4.28;81.44
32456;BME280;18912;43.270;27.942;2023-01-31T14:22:29;97713.50;;;4.53;80.12
32456;BME280;18912;43.270;27.942;2023-01-31T14:24:58;97714.66;;;4.28;80.81
32456;BME280;18912;43.270;27.942;2023-01-31T14:32:34;97721.63;;;3.84;83.60
32456;BME280;18912;43.270;27.942;2023-01-31T14:35:29;97726.56;;;4.03;83.69
32456;BME280;18912;43.270;27.942;2023-01-31T14:38:24;97726.56;;;4.25;82.45
32456;BME280;18912;43.270;27.942;2023-01-31T14:44:09;97730.34;;;4.61;80.75
32456;BME280;18912;43.270;27.942;2023-01-31T14:57:44;97739.16;;;4.17;84.26
32456;BME280;18912;43.270;27.942;2023-01-31T15:00:24;97740.59;;;4.27;84.47
32456;BME280;18912;43.270;27.942;2023-01-31T15:03:15;97751.13;;;4.29;84.34
32456;BME280;18912;43.270;27.942;2023-01-31T15:05:45;97758.28;;;4.06;85.25
32456;BME280;18912;43.270;27.942;2023-01-31T15:11:10;97763.03;;;4.18;85.71
32456;BME280;18912;43.270;27.942;2023-01-31T15:13:49;97764.38;;;4.22;84.64
32456;BME280;18912;43.270;27.942;2023-01-31T15:16:27;97759.66;;;4.24;84.90
32456;BME280;18912;43.270;27.942;2023-01-31T15:18:58;97771.75;;;4.12;85.38
32456;BME280;18912;43.270;27.942;2023-01-31T15:21:30;97772.50;;;4.37;84.51
32456;BME280;18912;43.270;27.942;2023-01-31T15:23:58;97769.59;;;4.16;85.17
32456;BME280;18912;43.270;27.942;2023-01-31T15:26:28;97782.06;;;3.93;86.82
32456;BME280;18912;43.270;27.942;2023-01-31T15:28:55;97772.94;;;3.79;87.80
32456;BME280;18912;43.270;27.942;2023-01-31T15:31:37;97787.41;;;4.01;86.58
32456;BME280;18912;43.270;27.942;2023-01-31T15:34:30;97798.38;;;4.14;86.57
32456;BME280;18912;43.270;27.942;2023-01-31T15:37:05;97802.00;;;4.21;86.02
32456;BME280;18912;43.270;27.942;2023-01-31T15:39:42;97802.41;;;4.02;85.83
32456;BME280;18912;43.270;27.942;2023-01-31T15:42:23;97805.78;;;3.96;87.01
32456;BME280;18912;43.270;27.942;2023-01-31T15:44:49;97811.66;;;3.91;87.76
32456;BME280;18912;43.270;27.942;2023-01-31T15:47:22;97814.13;;;4.01;87.79
32456;BME280;18912;43.270;27.942;2023-01-31T15:49:47;97816.09;;;4.07;87.14
32456;BME280;18912;43.270;27.942;2023-01-31T15:52:14;97822.38;;;4.22;86.87
32456;BME280;18912;43.270;27.942;2023-01-31T15:54:57;97819.44;;;4.09;86.78
32456;BME280;18912;43.270;27.942;2023-01-31T15:57:45;97837.47;;;4.15;87.23
32456;BME280;18912;43.270;27.942;2023-01-31T16:00:38;97841.00;;;4.07;87.13
32456;BME280;18912;43.270;27.942;2023-01-31T16:03:05;97834.56;;;4.32;86.57
32456;BME280;18912;43.270;27.942;2023-01-31T16:05:37;97852.00;;;4.20;86.59
32456;BME280;18912;43.270;27.942;2023-01-31T16:08:06;97846.66;;;4.12;87.48
32456;BME280;18912;43.270;27.942;2023-01-31T16:10:38;97851.78;;;3.91;88.48
32456;BME280;18912;43.270;27.942;2023-01-31T16:13:04;97855.56;;;4.05;88.74
32456;BME280;18912;43.270;27.942;2023-01-31T16:15:30;97857.34;;;4.20;87.40
32456;BME280;18912;43.270;27.942;2023-01-31T16:18:00;97854.19;;;4.09;87.96
32456;BME280;18912;43.270;27.942;2023-01-31T16:23:00;97858.09;;;3.98;89.54
32456;BME280;18912;43.270;27.942;2023-01-31T16:25:26;97856.72;;;4.10;88.66
32456;BME280;18912;43.270;27.942;2023-01-31T16:27:52;97861.25;;;4.10;87.88
32456;BME280;18912;43.270;27.942;2023-01-31T16:30:19;97869.09;;;4.03;89.24
32456;BME280;18912;43.270;27.942;2023-01-31T16:32:45;97865.38;;;3.65;90.92
32456;BME280;18912;43.270;27.942;2023-01-31T16:35:21;97868.28;;;4.03;90.10
32456;BME280;18912;43.270;27.942;2023-01-31T16:38:00;97864.91;;;4.09;88.95
32456;BME280;18912;43.270;27.942;2023-01-31T16:40:30;97872.25;;;4.15;88.40
32456;BME280;18912;43.270;27.942;2023-01-31T16:45:54;97874.91;;;4.15;88.60
32456;BME280;18912;43.270;27.942;2023-01-31T16:48:26;97874.88;;;4.31;88.02
32456;BME280;18912;43.270;27.942;2023-01-31T16:50:55;97880.22;;;4.31;87.80
32456;BME280;18912;43.270;27.942;2023-01-31T16:53:31;97879.75;;;4.27;87.33
32456;BME280;18912;43.270;27.942;2023-01-31T16:58:54;97878.91;;;4.19;88.21
32456;BME280;18912;43.270;27.942;2023-01-31T17:01:21;97881.28;;;4.14;88.74
32456;BME280;18912;43.270;27.942;2023-01-31T17:06:36;97877.47;;;4.39;87.64
32456;BME280;18912;43.270;27.942;2023-01-31T17:09:01;97883.97;;;4.14;88.87
32456;BME280;18912;43.270;27.942;2023-01-31T17:11:28;97889.91;;;4.24;88.34
32456;BME280;18912;43.270;27.942;2023-01-31T17:13:54;97881.22;;;4.30;88.38
32456;BME280;18912;43.270;27.942;2023-01-31T17:16:23;97887.00;;;4.41;88.02
32456;BME280;18912;43.270;27.942;2023-01-31T17:18:55;97881.19;;;4.38;88.07
32456;BME280;18912;43.270;27.942;2023-01-31T17:21:21;97891.53;;;4.41;87.86
32456;BME280;18912;43.270;27.942;2023-01-31T17:23:48;97870.13;;;4.41;88.03
32456;BME280;18912;43.270;27.942;2023-01-31T17:26:18;97882.91;;;4.23;88.52
32456;BME280;18912;43.270;27.942;2023-01-31T17:28:44;97893.34;;;4.10;89.60
32456;BME280;18912;43.270;27.942;2023-01-31T17:31:21;97894.56;;;4.38;88.86
32456;BME280;18912;43.270;27.942;2023-01-31T17:33:50;97892.97;;;4.13;89.32
32456;BME280;18912;43.270;27.942;2023-01-31T17:36:16;97890.97;;;4.15;89.22
32456;BME280;18912;43.270;27.942;2023-01-31T17:38:42;97902.22;;;4.41;88.42
32456;BME280;18912;43.270;27.942;2023-01-31T17:41:13;97889.19;;;4.46;87.71
32456;BME280;18912;43.270;27.942;2023-01-31T17:43:39;97896.06;;;4.40;88.16
32456;BME280;18912;43.270;27.942;2023-01-31T17:46:05;97895.59;;;4.37;87.54
32456;BME280;18912;43.270;27.942;2023-01-31T17:48:31;97890.97;;;4.15;88.57
32456;BME280;18912;43.270;27.942;2023-01-31T17:50:57;97891.94;;;4.22;88.53
32456;BME280;18912;43.270;27.942;2023-01-31T17:53:22;97901.94;;;4.28;88.45
32456;BME280;18912;43.270;27.942;2023-01-31T17:55:48;97895.69;;;4.51;87.43
32456;BME280;18912;43.270;27.942;2023-01-31T17:58:15;97886.78;;;4.59;86.96
32456;BME280;18912;43.270;27.942;2023-01-31T18:00:42;97892.25;;;4.35;87.28
32456;BME280;18912;43.270;27.942;2023-01-31T18:03:15;97896.56;;;4.44;87.14
32456;BME280;18912;43.270;27.942;2023-01-31T18:05:42;97898.56;;;4.42;86.61
32456;BME280;18912;43.270;27.942;2023-01-31T18:08:07;97898.47;;;4.58;86.39
32456;BME280;18912;43.270;27.942;2023-01-31T18:10:33;97899.78;;;4.62;85.69
32456;BME280;18912;43.270;27.942;2023-01-31T18:12:58;97897.44;;;4.67;85.33
32456;BME280;18912;43.270;27.942;2023-01-31T18:15:24;97906.44;;;4.74;85.30
32456;BME280;18912;43.270;27.942;2023-01-31T18:17:49;97891.81;;;4.54;85.37
32456;BME280;18912;43.270;27.942;2023-01-31T18:20:15;97895.09;;;4.64;85.65
32456;BME280;18912;43.270;27.942;2023-01-31T18:22:42;97891.38;;;4.73;84.61
32456;BME280;18912;43.270;27.942;2023-01-31T18:25:07;97900.41;;;4.72;84.46
32456;BME280;18912;43.270;27.942;2023-01-31T18:27:33;97897.75;;;4.72;84.75
32456;BME280;18912;43.270;27.942;2023-01-31T18:29:58;97891.03;;;4.76;84.32
32456;BME280;18912;43.270;27.942;2023-01-31T18:32:24;97886.88;;;4.65;83.83
32456;BME280;18912;43.270;27.942;2023-01-31T18:34:50;97897.91;;;4.70;84.00
32456;BME280;18912;43.270;27.942;2023-01-31T18:37:15;97895.44;;;4.69;84.30
32456;BME280;18912;43.270;27.942;2023-01-31T18:39:47;97903.75;;;4.74;83.63
32456;BME280;18912;43.270;27.942;2023-01-31T18:42:13;97899.41;;;4.73;83.07
32456;BME280;18912;43.270;27.942;2023-01-31T18:44:39;97901.06;;;4.74;83.20
32456;BME280;18912;43.270;27.942;2023-01-31T18:47:04;97908.47;;;4.64;83.06
32456;BME280;18912;43.270;27.942;2023-01-31T18:49:30;97916.25;;;4.51;82.76
32456;BME280;18912;43.270;27.942;2023-01-31T18:51:55;97908.91;;;4.45;83.12
32456;BME280;18912;43.270;27.942;2023-01-31T18:54:21;97910.72;;;4.52;81.97
32456;BME280;18912;43.270;27.942;2023-01-31T18:56:46;97910.13;;;4.42;82.00
32456;BME280;18912;43.270;27.942;2023-01-31T18:59:12;97907.94;;;4.38;82.19
32456;BME280;18912;43.270;27.942;2023-01-31T19:01:37;97917.97;;;4.44;82.11
32456;BME280;18912;43.270;27.942;2023-01-31T19:04:06;97914.66;;;4.34;81.83
32456;BME280;18912;43.270;27.942;2023-01-31T19:06:34;97920.84;;;4.26;81.77
32456;BME280;18912;43.270;27.942;2023-01-31T19:09:00;97905.00;;;4.25;81.70
32456;BME280;18912;43.270;27.942;2023-01-31T19:11:28;97916.53;;;4.25;80.85
32456;BME280;18912;43.270;27.942;2023-01-31T19:13:54;97910.53;;;4.15;81.35
32456;BME280;18912;43.270;27.942;2023-01-31T19:16:25;97908.31;;;4.35;80.38
32456;BME280;18912;43.270;27.942;2023-01-31T19:18:52;97905.09;;;4.39;79.47
32456;BME280;18912;43.270;27.942;2023-01-31T19:21:26;97918.66;;;4.38;79.12
32456;BME280;18912;43.270;27.942;2023-01-31T19:23:55;97907.66;;;4.25;78.97
32456;BME280;18912;43.270;27.942;2023-01-31T19:26:22;97916.56;;;4.01;79.77
32456;BME280;18912;43.270;27.942;2023-01-31T19:28:48;97916.63;;;3.85;80.84
32456;BME280;18912;43.270;27.942;2023-01-31T19:31:19;97915.06;;;4.07;80.11
32456;BME280;18912;43.270;27.942;2023-01-31T19:34:04;97911.72;;;4.05;79.67
32456;BME280;18912;43.270;27.942;2023-01-31T19:36:35;97918.75;;;4.06;79.58
32456;BME280;18912;43.270;27.942;2023-01-31T19:39:04;97914.28;;;3.90;80.09
32456;BME280;18912;43.270;27.942;2023-01-31T19:41:30;97904.22;;;4.00;79.63
32456;BME280;18912;43.270;27.942;2023-01-31T19:43:57;97916.06;;;4.14;78.93
32456;BME280;18912;43.270;27.942;2023-01-31T19:46:25;97912.03;;;4.18;78.53
32456;BME280;18912;43.270;27.942;2023-01-31T19:48:51;97908.06;;;4.06;79.19
32456;BME280;18912;43.270;27.942;2023-01-31T19:51:18;97916.06;;;4.14;78.81
32456;BME280;18912;43.270;27.942;2023-01-31T19:53:45;97912.03;;;4.18;78.65
32456;BME280;18912;43.270;27.942;2023-01-31T19:56:11;97914.19;;;4.14;79.39
32456;BME280;18912;43.270;27.942;2023-01-31T19:58:37;97916.84;;;4.22;79.02
32456;BME280;18912;43.270;27.942;2023-01-31T20:01:04;97918.75;;;4.06;80.08
32456;BME280;18912;43.270;27.942;2023-01-31T20:03:30;97923.22;;;4.21;80.06
32456;BME280;18912;43.270;27.942;2023-01-31T20:06:07;97925.56;;;4.24;79.67
32456;BME280;18912;43.270;27.942;2023-01-31T20:08:34;97925.75;;;4.15;80.54
32456;BME280;18912;43.270;27.942;2023-01-31T20:11:00;97920.50;;;4.29;79.97
32456;BME280;18912;43.270;27.942;2023-01-31T20:13:26;97926.00;;;4.36;79.64
32456;BME280;18912;43.270;27.942;2023-01-31T20:15:59;97919.03;;;4.19;79.95
32456;BME280;18912;43.270;27.942;2023-01-31T20:18:25;97923.03;;;4.31;79.89
32456;BME280;18912;43.270;27.942;2023-01-31T20:20:52;97929.00;;;4.41;79.62
32456;BME280;18912;43.270;27.942;2023-01-31T20:23:17;97918.47;;;4.39;79.65
32456;BME280;18912;43.270;27.942;2023-01-31T20:25:45;97932.88;;;4.38;79.12
32456;BME280;18912;43.270;27.942;2023-01-31T20:28:11;97925.84;;;4.29;79.92
32456;BME280;18912;43.270;27.942;2023-01-31T20:30:36;97926.22;;;4.26;80.08
32456;BME280;18912;43.270;27.942;2023-01-31T20:33:02;97924.19;;;4.28;80.38
32456;BME280;18912;43.270;27.942;2023-01-31T20:35:27;97928.50;;;4.37;79.94
32456;BME280;18912;43.270;27.942;2023-01-31T20:37:53;97929.34;;;4.38;79.76
32456;BME280;18912;43.270;27.942;2023-01-31T20:40:18;97935.00;;;4.43;79.40
32456;BME280;18912;43.270;27.942;2023-01-31T20:42:44;97929.63;;;4.51;78.89
32456;BME280;18912;43.270;27.942;2023-01-31T20:45:09;97930.69;;;4.42;79.30
32456;BME280;18912;43.270;27.942;2023-01-31T20:47:35;97933.63;;;4.55;78.69
32456;BME280;18912;43.270;27.942;2023-01-31T20:50:00;97938.31;;;4.53;78.36
32456;BME280;18912;43.270;27.942;2023-01-31T20:52:26;97938.69;;;4.50;78.80
32456;BME280;18912;43.270;27.942;2023-01-31T20:54:51;97942.53;;;4.47;78.49
32456;BME280;18912;43.270;27.942;2023-01-31T20:57:17;97949.00;;;4.61;78.10
32456;BME280;18912;43.270;27.942;2023-01-31T20:59:43;97943.63;;;4.69;77.83
32456;BME280;18912;43.270;27.942;2023-01-31T21:02:09;97947.28;;;4.68;77.48
32456;BME280;18912;43.270;27.942;2023-01-31T21:04:35;97949.31;;;4.66;77.03
32456;BME280;18912;43.270;27.942;2023-01-31T21:07:00;97950.47;;;4.63;77.16
32456;BME280;18912;43.270;27.942;2023-01-31T21:09:27;97950.81;;;4.68;76.87
32456;BME280;18912;43.270;27.942;2023-01-31T21:11:53;97949.50;;;4.56;76.51
32456;BME280;18912;43.270;27.942;2023-01-31T21:14:18;97943.25;;;4.72;76.48
32456;BME280;18912;43.270;27.942;2023-01-31T21:16:44;97947.66;;;4.65;76.41
32456;BME280;18912;43.270;27.942;2023-01-31T21:19:09;97954.53;;;4.59;76.51
32456;BME280;18912;43.270;27.942;2023-01-31T21:21:35;97953.88;;;4.57;76.78
32456;BME280;18912;43.270;27.942;2023-01-31T21:24:00;97946.66;;;4.58;76.09
32456;BME280;18912;43.270;27.942;2023-01-31T21:26:26;97951.00;;;4.67;76.37
32456;BME280;18912;43.270;27.942;2023-01-31T21:28:51;97951.94;;;4.74;75.75
32456;BME280;18912;43.270;27.942;2023-01-31T21:31:18;97954.59;;;4.82;75.58
32456;BME280;18912;43.270;27.942;2023-01-31T21:33:45;97951.59;;;4.77;75.25